sensor_id;sensor_type;location;lat;lon;timestamp;P1;durP1;ratioP1;P2;durP2;ratioP2
2848;SDS011;59355;52.416;13.412;2023-05-29T00:01:40;10.20;;;6.23;;
2848;SDS011;59355;52.416;13.412;2023-05-29T00:04:05;7.43;;;5.77;;
2848;SDS011;59355;52.416;13.412;2023-05-29T00:06:31;14.20;;;6.37;;
2848;SDS011;59355;52.416;13.412;2023-05-29T00:08:56;11.23;;;5.87;;
2848;SDS011;59355;52.416;13.412;2023-05-29T00:11:21;8.10;;;5.53;;
2848;SDS011;59355;52.416;13.412;2023-05-29T00:13:47;9.93;;;6.40;;
2848;SDS011;59355;52.416;13.412;2023-05-29T00:16:13;16.43;;;5.77;;
2848;SDS011;59355;52.416;13.412;2023-05-29T00:18:38;11.80;;;6.13;;
2848;SDS011;59355;52.416;13.412;2023-05-29T00:21:10;11.40;;;5.77;;
2848;SDS011;59355;52.416;13.412;2023-05-29T00:23:35;8.17;;;6.17;;
2848;SDS011;59355;52.416;13.412;2023-05-29T00:26:00;9.77;;;6.30;;
2848;SDS011;59355;52.416;13.412;2023-05-29T00:28:26;10.30;;;6.20;;
2848;SDS011;59355;52.416;13.412;2023-05-29T00:30:51;10.10;;;6.67;;
2848;SDS011;59355;52.416;13.412;2023-05-29T00:33:16;9.80;;;6.47;;
2848;SDS011;59355;52.416;13.412;2023-05-29T00:35:43;18.67;;;7.13;;
2848;SDS011;59355;52.416;13.412;2023-05-29T00:38:08;7.97;;;5.90;;
2848;SDS011;59355;52.416;13.412;2023-05-29T00:40:34;11.07;;;5.47;;
2848;SDS011;59355;52.416;13.412;2023-05-29T00:42:59;12.27;;;7.10;;
2848;SDS011;59355;52.416;13.412;2023-05-29T00:45:24;8.90;;;5.73;;
2848;SDS011;59355;52.416;13.412;2023-05-29T00:47:51;10.70;;;6.20;;
2848;SDS011;59355;52.416;13.412;2023-05-29T00:50:16;9.43;;;5.90;;
2848;SDS011;59355;52.416;13.412;2023-05-29T00:52:42;13.17;;;6.00;;
2848;SDS011;59355;52.416;13.412;2023-05-29T00:55:09;8.57;;;6.00;;
2848;SDS011;59355;52.416;13.412;2023-05-29T00:57:35;13.80;;;6.77;;
2848;SDS011;59355;52.416;13.412;2023-05-29T01:00:00;7.10;;;5.50;;
2848;SDS011;59355;52.416;13.412;2023-05-29T01:02:29;10.83;;;7.00;;
2848;SDS011;59355;52.416;13.412;2023-05-29T01:04:55;8.53;;;5.20;;
2848;SDS011;59355;52.416;13.412;2023-05-29T01:07:21;12.70;;;5.67;;
2848;SDS011;59355;52.416;13.412;2023-05-29T01:09:46;6.13;;;5.37;;
2848;SDS011;59355;52.416;13.412;2023-05-29T01:12:23;11.53;;;5.70;;
2848;SDS011;59355;52.416;13.412;2023-05-29T01:15:13;10.70;;;5.67;;
2848;SDS011;59355;52.416;13.412;2023-05-29T01:17:51;7.73;;;6.00;;
2848;SDS011;59355;52.416;13.412;2023-05-29T01:20:37;8.20;;;6.23;;
2848;SDS011;59355;52.416;13.412;2023-05-29T01:23:16;7.83;;;5.63;;
2848;SDS011;59355;52.416;13.412;2023-05-29T01:28:33;9.07;;;6.70;;
2848;SDS011;59355;52.416;13.412;2023-05-29T01:31:04;13.63;;;6.17;;
2848;SDS011;59355;52.416;13.412;2023-05-29T01:33:30;7.73;;;5.00;;
2848;SDS011;59355;52.416;13.412;2023-05-29T01:35:55;8.73;;;5.40;;
2848;SDS011;59355;52.416;13.412;2023-05-29T01:38:21;7.93;;;5.67;;
2848;SDS011;59355;52.416;13.412;2023-05-29T01:40:46;7.07;;;4.70;;
2848;SDS011;59355;52.416;13.412;2023-05-29T01:43:12;8.03;;;5.27;;
2848;SDS011;59355;52.416;13.412;2023-05-29T01:45:38;10.20;;;5.30;;
2848;SDS011;59355;52.416;13.412;2023-05-29T01:48:04;10.43;;;5.53;;
2848;SDS011;59355;52.416;13.412;2023-05-29T01:50:29;8.77;;;5.13;;
2848;SDS011;59355;52.416;13.412;2023-05-29T01:52:56;8.30;;;6.43;;
2848;SDS011;59355;52.416;13.412;2023-05-29T01:55:21;8.53;;;6.30;;
2848;SDS011;59355;52.416;13.412;2023-05-29T01:57:46;9.00;;;5.60;;
2848;SDS011;59355;52.416;13.412;2023-05-29T02:00:12;7.40;;;5.20;;
2848;SDS011;59355;52.416;13.412;2023-05-29T02:02:38;7.60;;;5.10;;
2848;SDS011;59355;52.416;13.412;2023-05-29T02:05:04;6.90;;;5.20;;
2848;SDS011;59355;52.416;13.412;2023-05-29T02:07:30;11.30;;;6.60;;
2848;SDS011;59355;52.416;13.412;2023-05-29T02:09:55;9.23;;;5.50;;
2848;SDS011;59355;52.416;13.412;2023-05-29T02:12:21;7.80;;;5.50;;
2848;SDS011;59355;52.416;13.412;2023-05-29T02:14:46;13.03;;;5.60;;
2848;SDS011;59355;52.416;13.412;2023-05-29T02:17:11;7.83;;;5.93;;
2848;SDS011;59355;52.416;13.412;2023-05-29T02:19:37;6.00;;;4.60;;
2848;SDS011;59355;52.416;13.412;2023-05-29T02:22:02;9.83;;;5.27;;
2848;SDS011;59355;52.416;13.412;2023-05-29T02:24:28;9.43;;;5.40;;
2848;SDS011;59355;52.416;13.412;2023-05-29T02:26:53;6.60;;;5.90;;
2848;SDS011;59355;52.416;13.412;2023-05-29T02:29:19;6.93;;;5.33;;
2848;SDS011;59355;52.416;13.412;2023-05-29T02:31:45;8.10;;;5.10;;
2848;SDS011;59355;52.416;13.412;2023-05-29T02:34:10;10.10;;;5.90;;
2848;SDS011;59355;52.416;13.412;2023-05-29T02:36:36;8.33;;;5.27;;
2848;SDS011;59355;52.416;13.412;2023-05-29T02:39:02;7.07;;;5.30;;
2848;SDS011;59355;52.416;13.412;2023-05-29T02:41:28;8.87;;;5.10;;
2848;SDS011;59355;52.416;13.412;2023-05-29T02:43:53;5.93;;;5.33;;
2848;SDS011;59355;52.416;13.412;2023-05-29T02:46:18;6.07;;;4.70;;
2848;SDS011;59355;52.416;13.412;2023-05-29T02:48:44;7.67;;;5.50;;
2848;SDS011;59355;52.416;13.412;2023-05-29T02:51:10;11.87;;;5.20;;
2848;SDS011;59355;52.416;13.412;2023-05-29T02:53:35;7.17;;;5.20;;
2848;SDS011;59355;52.416;13.412;2023-05-29T02:56:01;11.03;;;5.47;;
2848;SDS011;59355;52.416;13.412;2023-05-29T02:58:26;12.70;;;4.73;;
2848;SDS011;59355;52.416;13.412;2023-05-29T03:00:52;6.37;;;5.13;;
2848;SDS011;59355;52.416;13.412;2023-05-29T03:03:17;8.10;;;5.50;;
2848;SDS011;59355;52.416;13.412;2023-05-29T03:05:43;7.73;;;5.23;;
2848;SDS011;59355;52.416;13.412;2023-05-29T03:08:08;14.33;;;5.67;;
2848;SDS011;59355;52.416;13.412;2023-05-29T03:10:33;8.87;;;5.50;;
2848;SDS011;59355;52.416;13.412;2023-05-29T03:12:59;12.90;;;6.17;;
2848;SDS011;59355;52.416;13.412;2023-05-29T03:15:24;8.07;;;5.73;;
2848;SDS011;59355;52.416;13.412;2023-05-29T03:17:49;7.37;;;5.70;;
2848;SDS011;59355;52.416;13.412;2023-05-29T03:20:14;7.50;;;5.70;;
2848;SDS011;59355;52.416;13.412;2023-05-29T03:22:40;8.43;;;4.43;;
2848;SDS011;59355;52.416;13.412;2023-05-29T03:25:06;8.43;;;6.60;;
2848;SDS011;59355;52.416;13.412;2023-05-29T03:27:31;6.37;;;4.90;;
2848;SDS011;59355;52.416;13.412;2023-05-29T03:29:57;5.27;;;4.50;;
2848;SDS011;59355;52.416;13.412;2023-05-29T03:32:23;8.03;;;5.70;;
2848;SDS011;59355;52.416;13.412;2023-05-29T03:34:48;7.00;;;5.00;;
2848;SDS011;59355;52.416;13.412;2023-05-29T03:37:14;7.43;;;5.40;;
2848;SDS011;59355;52.416;13.412;2023-05-29T03:39:39;7.30;;;6.03;;
2848;SDS011;59355;52.416;13.412;2023-05-29T03:42:04;10.60;;;5.27;;
2848;SDS011;59355;52.416;13.412;2023-05-29T03:44:30;7.90;;;6.10;;
2848;SDS011;59355;52.416;13.412;2023-05-29T03:46:55;8.63;;;5.60;;
2848;SDS011;59355;52.416;13.412;2023-05-29T03:49:20;9.33;;;6.40;;
2848;SDS011;59355;52.416;13.412;2023-05-29T03:51:46;11.93;;;6.63;;
2848;SDS011;59355;52.416;13.412;2023-05-29T03:54:11;9.40;;;5.63;;
2848;SDS011;59355;52.416;13.412;2023-05-29T03:56:36;9.10;;;6.63;;
2848;SDS011;59355;52.416;13.412;2023-05-29T03:59:02;8.70;;;6.47;;
2848;SDS011;59355;52.416;13.412;2023-05-29T04:01:27;15.93;;;6.10;;
2848;SDS011;59355;52.416;13.412;2023-05-29T04:03:52;12.80;;;6.73;;
2848;SDS011;59355;52.416;13.412;2023-05-29T04:06:18;6.67;;;5.63;;
2848;SDS011;59355;52.416;13.412;2023-05-29T04:08:43;8.20;;;6.87;;
2848;SDS011;59355;52.416;13.412;2023-05-29T04:11:08;12.87;;;6.90;;
2848;SDS011;59355;52.416;13.412;2023-05-29T04:13:34;11.87;;;6.43;;
2848;SDS011;59355;52.416;13.412;2023-05-29T04:15:59;8.30;;;6.53;;
2848;SDS011;59355;52.416;13.412;2023-05-29T04:18:25;8.97;;;6.53;;
2848;SDS011;59355;52.416;13.412;2023-05-29T04:20:50;9.30;;;6.03;;
2848;SDS011;59355;52.416;13.412;2023-05-29T04:23:16;5.90;;;5.30;;
2848;SDS011;59355;52.416;13.412;2023-05-29T04:25:41;9.70;;;7.10;;
2848;SDS011;59355;52.416;13.412;2023-05-29T04:28:08;9.40;;;5.70;;
2848;SDS011;59355;52.416;13.412;2023-05-29T04:30:35;8.00;;;5.97;;
2848;SDS011;59355;52.416;13.412;2023-05-29T04:33:01;7.03;;;5.40;;
2848;SDS011;59355;52.416;13.412;2023-05-29T04:35:26;10.80;;;5.90;;
2848;SDS011;59355;52.416;13.412;2023-05-29T04:37:53;11.33;;;5.77;;
2848;SDS011;59355;52.416;13.412;2023-05-29T04:40:18;7.90;;;5.60;;
2848;SDS011;59355;52.416;13.412;2023-05-29T04:42:45;9.93;;;5.80;;
2848;SDS011;59355;52.416;13.412;2023-05-29T04:45:11;8.73;;;6.00;;
2848;SDS011;59355;52.416;13.412;2023-05-29T04:47:36;9.80;;;7.20;;
2848;SDS011;59355;52.416;13.412;2023-05-29T04:50:11;11.10;;;6.10;;
2848;SDS011;59355;52.416;13.412;2023-05-29T04:52:37;7.53;;;5.20;;
2848;SDS011;59355;52.416;13.412;2023-05-29T04:55:03;9.30;;;4.93;;
2848;SDS011;59355;52.416;13.412;2023-05-29T04:57:29;5.93;;;4.33;;
2848;SDS011;59355;52.416;13.412;2023-05-29T04:59:54;11.43;;;5.63;;
2848;SDS011;59355;52.416;13.412;2023-05-29T05:02:19;5.23;;;4.30;;
2848;SDS011;59355;52.416;13.412;2023-05-29T05:04:45;4.37;;;3.93;;
2848;SDS011;59355;52.416;13.412;2023-05-29T05:07:10;4.80;;;3.80;;
2848;SDS011;59355;52.416;13.412;2023-05-29T05:09:36;4.70;;;4.07;;
2848;SDS011;59355;52.416;13.412;2023-05-29T05:12:01;8.00;;;5.03;;
2848;SDS011;59355;52.416;13.412;2023-05-29T05:14:27;7.83;;;4.67;;
2848;SDS011;59355;52.416;13.412;2023-05-29T05:16:52;7.50;;;4.50;;
2848;SDS011;59355;52.416;13.412;2023-05-29T05:19:18;6.27;;;4.70;;
2848;SDS011;59355;52.416;13.412;2023-05-29T05:21:43;7.27;;;4.40;;
2848;SDS011;59355;52.416;13.412;2023-05-29T05:24:08;6.90;;;4.73;;
2848;SDS011;59355;52.416;13.412;2023-05-29T05:26:34;7.07;;;3.83;;
2848;SDS011;59355;52.416;13.412;2023-05-29T05:28:59;11.47;;;3.83;;
2848;SDS011;59355;52.416;13.412;2023-05-29T05:31:24;5.90;;;3.93;;
2848;SDS011;59355;52.416;13.412;2023-05-29T05:33:50;8.07;;;4.60;;
2848;SDS011;59355;52.416;13.412;2023-05-29T05:36:15;6.00;;;4.77;;
2848;SDS011;59355;52.416;13.412;2023-05-29T05:38:41;5.47;;;3.80;;
2848;SDS011;59355;52.416;13.412;2023-05-29T05:41:06;4.80;;;3.23;;
2848;SDS011;59355;52.416;13.412;2023-05-29T05:43:32;7.00;;;4.53;;
2848;SDS011;59355;52.416;13.412;2023-05-29T05:45:57;6.90;;;4.40;;
2848;SDS011;59355;52.416;13.412;2023-05-29T05:48:22;5.47;;;3.70;;
2848;SDS011;59355;52.416;13.412;2023-05-29T05:50:48;6.73;;;4.03;;
2848;SDS011;59355;52.416;13.412;2023-05-29T05:53:13;3.70;;;3.00;;
2848;SDS011;59355;52.416;13.412;2023-05-29T05:55:38;4.00;;;3.50;;
2848;SDS011;59355;52.416;13.412;2023-05-29T05:58:03;4.97;;;3.90;;
2848;SDS011;59355;52.416;13.412;2023-05-29T06:00:29;3.60;;;3.20;;
2848;SDS011;59355;52.416;13.412;2023-05-29T06:02:54;4.23;;;3.60;;
2848;SDS011;59355;52.416;13.412;2023-05-29T06:05:20;5.13;;;3.33;;
2848;SDS011;59355;52.416;13.412;2023-05-29T06:07:45;5.73;;;3.27;;
2848;SDS011;59355;52.416;13.412;2023-05-29T06:10:10;4.80;;;3.40;;
2848;SDS011;59355;52.416;13.412;2023-05-29T06:12:36;3.23;;;2.93;;
2848;SDS011;59355;52.416;13.412;2023-05-29T06:15:01;4.83;;;3.03;;
2848;SDS011;59355;52.416;13.412;2023-05-29T06:17:29;5.50;;;3.20;;
2848;SDS011;59355;52.416;13.412;2023-05-29T06:19:54;4.23;;;3.27;;
2848;SDS011;59355;52.416;13.412;2023-05-29T06:22:19;4.43;;;2.73;;
2848;SDS011;59355;52.416;13.412;2023-05-29T06:24:45;3.13;;;2.63;;
2848;SDS011;59355;52.416;13.412;2023-05-29T06:27:10;4.47;;;3.43;;
2848;SDS011;59355;52.416;13.412;2023-05-29T06:29:36;5.67;;;2.83;;
2848;SDS011;59355;52.416;13.412;2023-05-29T06:32:01;4.20;;;2.93;;
2848;SDS011;59355;52.416;13.412;2023-05-29T06:34:26;3.97;;;2.93;;
2848;SDS011;59355;52.416;13.412;2023-05-29T06:36:52;3.70;;;2.93;;
2848;SDS011;59355;52.416;13.412;2023-05-29T06:39:17;4.43;;;3.27;;
2848;SDS011;59355;52.416;13.412;2023-05-29T06:41:43;4.90;;;2.77;;
2848;SDS011;59355;52.416;13.412;2023-05-29T06:44:08;5.07;;;3.10;;
2848;SDS011;59355;52.416;13.412;2023-05-29T06:46:33;3.80;;;2.93;;
2848;SDS011;59355;52.416;13.412;2023-05-29T06:48:59;7.53;;;3.40;;
2848;SDS011;59355;52.416;13.412;2023-05-29T06:51:24;5.30;;;2.97;;
2848;SDS011;59355;52.416;13.412;2023-05-29T06:53:49;3.30;;;3.00;;
2848;SDS011;59355;52.416;13.412;2023-05-29T06:56:15;4.33;;;3.10;;
2848;SDS011;59355;52.416;13.412;2023-05-29T06:58:40;4.50;;;3.03;;
2848;SDS011;59355;52.416;13.412;2023-05-29T07:01:05;3.30;;;2.67;;
2848;SDS011;59355;52.416;13.412;2023-05-29T07:03:31;6.07;;;3.57;;
2848;SDS011;59355;52.416;13.412;2023-05-29T07:05:56;4.00;;;3.20;;
2848;SDS011;59355;52.416;13.412;2023-05-29T07:08:22;3.97;;;3.53;;
2848;SDS011;59355;52.416;13.412;2023-05-29T07:10:48;4.63;;;2.83;;
2848;SDS011;59355;52.416;13.412;2023-05-29T07:13:14;4.17;;;3.30;;
2848;SDS011;59355;52.416;13.412;2023-05-29T07:15:40;3.37;;;2.80;;
2848;SDS011;59355;52.416;13.412;2023-05-29T07:18:08;4.40;;;2.87;;
2848;SDS011;59355;52.416;13.412;2023-05-29T07:20:34;5.00;;;3.33;;
2848;SDS011;59355;52.416;13.412;2023-05-29T07:22:59;4.37;;;3.00;;
2848;SDS011;59355;52.416;13.412;2023-05-29T07:25:24;5.53;;;3.10;;
2848;SDS011;59355;52.416;13.412;2023-05-29T07:27:51;3.13;;;2.77;;
2848;SDS011;59355;52.416;13.412;2023-05-29T07:30:16;3.17;;;2.87;;
2848;SDS011;59355;52.416;13.412;2023-05-29T07:32:41;4.83;;;3.10;;
2848;SDS011;59355;52.416;13.412;2023-05-29T07:35:07;4.60;;;2.90;;
2848;SDS011;59355;52.416;13.412;2023-05-29T07:37:33;6.63;;;3.73;;
2848;SDS011;59355;52.416;13.412;2023-05-29T07:39:59;7.03;;;3.30;;
2848;SDS011;59355;52.416;13.412;2023-05-29T07:42:24;3.60;;;3.00;;
2848;SDS011;59355;52.416;13.412;2023-05-29T07:44:50;4.80;;;3.00;;
2848;SDS011;59355;52.416;13.412;2023-05-29T07:47:15;3.53;;;3.23;;
2848;SDS011;59355;52.416;13.412;2023-05-29T07:49:40;4.43;;;3.50;;
2848;SDS011;59355;52.416;13.412;2023-05-29T07:52:06;4.00;;;3.47;;
2848;SDS011;59355;52.416;13.412;2023-05-29T07:54:31;5.60;;;3.07;;
2848;SDS011;59355;52.416;13.412;2023-05-29T07:56:58;4.73;;;3.10;;
2848;SDS011;59355;52.416;13.412;2023-05-29T07:59:27;6.93;;;2.70;;
2848;SDS011;59355;52.416;13.412;2023-05-29T08:01:53;5.47;;;3.00;;
2848;SDS011;59355;52.416;13.412;2023-05-29T08:04:21;3.67;;;3.23;;
2848;SDS011;59355;52.416;13.412;2023-05-29T08:06:46;5.37;;;3.10;;
2848;SDS011;59355;52.416;13.412;2023-05-29T08:09:12;3.70;;;3.30;;
2848;SDS011;59355;52.416;13.412;2023-05-29T08:11:38;4.50;;;3.43;;
2848;SDS011;59355;52.416;13.412;2023-05-29T08:14:03;4.80;;;3.27;;
2848;SDS011;59355;52.416;13.412;2023-05-29T08:16:28;5.70;;;3.50;;
2848;SDS011;59355;52.416;13.412;2023-05-29T08:18:54;2.90;;;2.60;;
2848;SDS011;59355;52.416;13.412;2023-05-29T08:21:20;4.50;;;3.13;;
2848;SDS011;59355;52.416;13.412;2023-05-29T08:23:45;5.40;;;2.90;;
2848;SDS011;59355;52.416;13.412;2023-05-29T08:26:10;4.00;;;3.37;;
2848;SDS011;59355;52.416;13.412;2023-05-29T08:28:36;3.43;;;2.90;;
2848;SDS011;59355;52.416;13.412;2023-05-29T08:31:01;8.00;;;7.20;;
2848;SDS011;59355;52.416;13.412;2023-05-29T08:33:27;5.30;;;3.50;;
2848;SDS011;59355;52.416;13.412;2023-05-29T08:35:52;5.30;;;3.50;;
2848;SDS011;59355;52.416;13.412;2023-05-29T08:38:17;5.50;;;3.67;;
2848;SDS011;59355;52.416;13.412;2023-05-29T08:40:43;5.13;;;3.10;;
2848;SDS011;59355;52.416;13.412;2023-05-29T08:43:15;3.60;;;2.97;;
2848;SDS011;59355;52.416;13.412;2023-05-29T08:45:42;4.47;;;3.47;;
2848;SDS011;59355;52.416;13.412;2023-05-29T08:48:09;5.20;;;3.87;;
2848;SDS011;59355;52.416;13.412;2023-05-29T08:50:35;4.83;;;3.30;;
2848;SDS011;59355;52.416;13.412;2023-05-29T08:53:03;4.67;;;3.37;;
2848;SDS011;59355;52.416;13.412;2023-05-29T08:55:28;5.57;;;3.20;;
2848;SDS011;59355;52.416;13.412;2023-05-29T08:57:54;4.20;;;3.20;;
2848;SDS011;59355;52.416;13.412;2023-05-29T09:00:20;5.47;;;3.53;;
2848;SDS011;59355;52.416;13.412;2023-05-29T09:02:47;4.67;;;3.60;;
2848;SDS011;59355;52.416;13.412;2023-05-29T09:05:12;3.97;;;3.23;;
2848;SDS011;59355;52.416;13.412;2023-05-29T09:07:38;5.97;;;3.87;;
2848;SDS011;59355;52.416;13.412;2023-05-29T09:10:08;5.40;;;3.20;;
2848;SDS011;59355;52.416;13.412;2023-05-29T09:12:34;4.13;;;3.30;;
2848;SDS011;59355;52.416;13.412;2023-05-29T09:14:59;4.77;;;3.70;;
2848;SDS011;59355;52.416;13.412;2023-05-29T09:17:29;5.60;;;4.10;;
2848;SDS011;59355;52.416;13.412;2023-05-29T09:19:57;5.83;;;4.10;;
2848;SDS011;59355;52.416;13.412;2023-05-29T09:22:23;4.40;;;3.83;;
2848;SDS011;59355;52.416;13.412;2023-05-29T09:24:48;5.00;;;3.70;;
2848;SDS011;59355;52.416;13.412;2023-05-29T09:27:15;5.13;;;4.20;;
2848;SDS011;59355;52.416;13.412;2023-05-29T09:29:42;5.80;;;4.07;;
2848;SDS011;59355;52.416;13.412;2023-05-29T09:32:09;4.67;;;3.30;;
2848;SDS011;59355;52.416;13.412;2023-05-29T09:34:35;5.27;;;3.77;;
2848;SDS011;59355;52.416;13.412;2023-05-29T09:37:02;4.50;;;3.90;;
2848;SDS011;59355;52.416;13.412;2023-05-29T09:39:33;6.00;;;4.00;;
2848;SDS011;59355;52.416;13.412;2023-05-29T09:41:59;4.53;;;4.00;;
2848;SDS011;59355;52.416;13.412;2023-05-29T09:44:24;10.40;;;3.90;;
2848;SDS011;59355;52.416;13.412;2023-05-29T09:46:56;6.40;;;4.43;;
2848;SDS011;59355;52.416;13.412;2023-05-29T09:49:23;6.60;;;4.00;;
2848;SDS011;59355;52.416;13.412;2023-05-29T09:51:48;5.43;;;4.40;;
2848;SDS011;59355;52.416;13.412;2023-05-29T09:54:17;5.97;;;4.30;;
2848;SDS011;59355;52.416;13.412;2023-05-29T09:56:43;4.80;;;3.60;;
2848;SDS011;59355;52.416;13.412;2023-05-29T09:59:10;6.10;;;4.50;;
2848;SDS011;59355;52.416;13.412;2023-05-29T10:01:36;4.83;;;4.23;;
2848;SDS011;59355;52.416;13.412;2023-05-29T10:04:04;5.13;;;3.60;;
2848;SDS011;59355;52.416;13.412;2023-05-29T10:06:29;6.13;;;4.47;;
2848;SDS011;59355;52.416;13.412;2023-05-29T10:08:55;5.40;;;3.83;;
2848;SDS011;59355;52.416;13.412;2023-05-29T10:11:21;5.63;;;4.17;;
2848;SDS011;59355;52.416;13.412;2023-05-29T10:13:51;5.00;;;4.40;;
2848;SDS011;59355;52.416;13.412;2023-05-29T10:16:16;8.23;;;4.10;;
2848;SDS011;59355;52.416;13.412;2023-05-29T10:18:48;4.77;;;4.17;;
2848;SDS011;59355;52.416;13.412;2023-05-29T10:21:16;6.83;;;4.13;;
2848;SDS011;59355;52.416;13.412;2023-05-29T10:23:43;5.43;;;3.40;;
2848;SDS011;59355;52.416;13.412;2023-05-29T10:26:14;6.87;;;4.60;;
2848;SDS011;59355;52.416;13.412;2023-05-29T10:28:42;6.00;;;4.03;;
2848;SDS011;59355;52.416;13.412;2023-05-29T10:31:12;5.57;;;3.83;;
2848;SDS011;59355;52.416;13.412;2023-05-29T10:36:16;7.00;;;4.00;;
2848;SDS011;59355;52.416;13.412;2023-05-29T10:38:46;4.83;;;4.30;;
2848;SDS011;59355;52.416;13.412;2023-05-29T10:41:28;6.07;;;3.90;;
2848;SDS011;59355;52.416;13.412;2023-05-29T10:44:00;5.20;;;3.80;;
2848;SDS011;59355;52.416;13.412;2023-05-29T10:49:16;4.40;;;3.83;;
2848;SDS011;59355;52.416;13.412;2023-05-29T10:51:45;4.07;;;3.67;;
2848;SDS011;59355;52.416;13.412;2023-05-29T10:54:10;6.50;;;4.27;;
2848;SDS011;59355;52.416;13.412;2023-05-29T10:56:36;5.83;;;4.43;;
2848;SDS011;59355;52.416;13.412;2023-05-29T10:59:01;5.10;;;4.07;;
2848;SDS011;59355;52.416;13.412;2023-05-29T11:01:27;4.87;;;3.63;;
2848;SDS011;59355;52.416;13.412;2023-05-29T11:03:54;4.10;;;3.43;;
2848;SDS011;59355;52.416;13.412;2023-05-29T11:06:38;8.43;;;3.90;;
2848;SDS011;59355;52.416;13.412;2023-05-29T11:09:04;5.23;;;4.00;;
2848;SDS011;59355;52.416;13.412;2023-05-29T11:11:34;5.10;;;3.70;;
2848;SDS011;59355;52.416;13.412;2023-05-29T11:14:05;4.30;;;3.63;;
2848;SDS011;59355;52.416;13.412;2023-05-29T11:18:58;5.03;;;4.00;;
2848;SDS011;59355;52.416;13.412;2023-05-29T11:23:50;6.70;;;4.00;;
2848;SDS011;59355;52.416;13.412;2023-05-29T11:26:16;4.87;;;3.23;;
2848;SDS011;59355;52.416;13.412;2023-05-29T11:28:42;4.53;;;3.30;;
2848;SDS011;59355;52.416;13.412;2023-05-29T11:31:08;5.00;;;4.20;;
2848;SDS011;59355;52.416;13.412;2023-05-29T11:33:33;5.93;;;3.90;;
2848;SDS011;59355;52.416;13.412;2023-05-29T11:36:03;4.93;;;3.80;;
2848;SDS011;59355;52.416;13.412;2023-05-29T11:38:28;4.10;;;3.60;;
2848;SDS011;59355;52.416;13.412;2023-05-29T11:40:54;5.43;;;3.77;;
2848;SDS011;59355;52.416;13.412;2023-05-29T11:43:20;5.20;;;3.80;;
2848;SDS011;59355;52.416;13.412;2023-05-29T11:45:45;3.90;;;3.50;;
2848;SDS011;59355;52.416;13.412;2023-05-29T11:48:11;6.40;;;3.83;;
2848;SDS011;59355;52.416;13.412;2023-05-29T11:50:36;7.37;;;4.13;;
2848;SDS011;59355;52.416;13.412;2023-05-29T11:53:01;5.17;;;3.53;;
2848;SDS011;59355;52.416;13.412;2023-05-29T11:55:27;3.90;;;3.60;;
2848;SDS011;59355;52.416;13.412;2023-05-29T11:57:59;5.50;;;3.63;;
2848;SDS011;59355;52.416;13.412;2023-05-29T12:00:25;5.03;;;3.60;;
2848;SDS011;59355;52.416;13.412;2023-05-29T12:02:51;3.67;;;3.33;;
2848;SDS011;59355;52.416;13.412;2023-05-29T12:05:16;8.07;;;3.80;;
2848;SDS011;59355;52.416;13.412;2023-05-29T12:07:52;4.43;;;3.73;;
2848;SDS011;59355;52.416;13.412;2023-05-29T12:10:19;4.40;;;3.40;;
2848;SDS011;59355;52.416;13.412;2023-05-29T12:12:52;3.60;;;3.30;;
2848;SDS011;59355;52.416;13.412;2023-05-29T12:15:24;7.23;;;3.90;;
2848;SDS011;59355;52.416;13.412;2023-05-29T12:17:50;6.03;;;3.67;;
2848;SDS011;59355;52.416;13.412;2023-05-29T12:20:16;4.90;;;4.40;;
2848;SDS011;59355;52.416;13.412;2023-05-29T12:22:42;5.00;;;3.60;;
2848;SDS011;59355;52.416;13.412;2023-05-29T12:25:12;5.07;;;3.57;;
2848;SDS011;59355;52.416;13.412;2023-05-29T12:27:42;4.00;;;3.60;;
2848;SDS011;59355;52.416;13.412;2023-05-29T12:30:12;4.00;;;3.60;;
2848;SDS011;59355;52.416;13.412;2023-05-29T12:32:51;4.60;;;3.50;;
2848;SDS011;59355;52.416;13.412;2023-05-29T12:35:17;5.60;;;4.90;;
2848;SDS011;59355;52.416;13.412;2023-05-29T12:37:44;4.43;;;3.90;;
2848;SDS011;59355;52.416;13.412;2023-05-29T12:40:10;4.27;;;3.33;;
2848;SDS011;59355;52.416;13.412;2023-05-29T12:42:37;4.50;;;3.50;;
2848;SDS011;59355;52.416;13.412;2023-05-29T12:45:03;5.13;;;3.43;;
2848;SDS011;59355;52.416;13.412;2023-05-29T12:47:29;5.67;;;3.73;;
2848;SDS011;59355;52.416;13.412;2023-05-29T12:49:54;4.37;;;3.80;;
2848;SDS011;59355;52.416;13.412;2023-05-29T12:52:21;4.37;;;3.70;;
2848;SDS011;59355;52.416;13.412;2023-05-29T12:54:46;4.50;;;3.23;;
2848;SDS011;59355;52.416;13.412;2023-05-29T12:57:11;5.27;;;3.97;;
2848;SDS011;59355;52.416;13.412;2023-05-29T12:59:36;4.23;;;3.30;;
2848;SDS011;59355;52.416;13.412;2023-05-29T13:02:02;4.67;;;4.20;;
2848;SDS011;59355;52.416;13.412;2023-05-29T13:04:28;5.90;;;3.87;;
2848;SDS011;59355;52.416;13.412;2023-05-29T13:06:53;4.93;;;3.60;;
2848;SDS011;59355;52.416;13.412;2023-05-29T13:09:18;5.10;;;4.00;;
2848;SDS011;59355;52.416;13.412;2023-05-29T13:11:44;7.37;;;3.80;;
2848;SDS011;59355;52.416;13.412;2023-05-29T13:14:09;4.90;;;3.83;;
2848;SDS011;59355;52.416;13.412;2023-05-29T13:16:34;6.53;;;3.60;;
2848;SDS011;59355;52.416;13.412;2023-05-29T13:19:00;6.13;;;3.70;;
2848;SDS011;59355;52.416;13.412;2023-05-29T13:21:26;6.07;;;3.67;;
2848;SDS011;59355;52.416;13.412;2023-05-29T13:23:51;6.43;;;3.50;;
2848;SDS011;59355;52.416;13.412;2023-05-29T13:26:16;6.50;;;3.80;;
2848;SDS011;59355;52.416;13.412;2023-05-29T13:28:42;4.17;;;3.70;;
2848;SDS011;59355;52.416;13.412;2023-05-29T13:31:07;5.13;;;3.40;;
2848;SDS011;59355;52.416;13.412;2023-05-29T13:33:32;6.90;;;3.93;;
2848;SDS011;59355;52.416;13.412;2023-05-29T13:35:57;4.43;;;3.50;;
2848;SDS011;59355;52.416;13.412;2023-05-29T13:38:23;4.77;;;3.30;;
2848;SDS011;59355;52.416;13.412;2023-05-29T13:40:48;5.33;;;3.53;;
2848;SDS011;59355;52.416;13.412;2023-05-29T13:43:13;4.37;;;3.67;;
2848;SDS011;59355;52.416;13.412;2023-05-29T13:45:39;4.03;;;3.50;;
2848;SDS011;59355;52.416;13.412;2023-05-29T13:48:05;4.37;;;3.53;;
2848;SDS011;59355;52.416;13.412;2023-05-29T13:50:30;5.97;;;3.13;;
2848;SDS011;59355;52.416;13.412;2023-05-29T13:52:56;8.73;;;3.63;;
2848;SDS011;59355;52.416;13.412;2023-05-29T13:55:21;4.60;;;4.00;;
2848;SDS011;59355;52.416;13.412;2023-05-29T13:57:46;5.13;;;3.53;;
2848;SDS011;59355;52.416;13.412;2023-05-29T14:00:12;7.03;;;3.90;;
2848;SDS011;59355;52.416;13.412;2023-05-29T14:02:37;5.07;;;3.87;;
2848;SDS011;59355;52.416;13.412;2023-05-29T14:05:03;5.80;;;3.53;;
2848;SDS011;59355;52.416;13.412;2023-05-29T14:07:31;5.47;;;3.90;;
2848;SDS011;59355;52.416;13.412;2023-05-29T14:09:56;6.60;;;4.00;;
2848;SDS011;59355;52.416;13.412;2023-05-29T14:12:21;5.10;;;3.70;;
2848;SDS011;59355;52.416;13.412;2023-05-29T14:14:47;7.43;;;3.33;;
2848;SDS011;59355;52.416;13.412;2023-05-29T14:17:13;5.60;;;3.70;;
2848;SDS011;59355;52.416;13.412;2023-05-29T14:19:39;7.80;;;6.33;;
2848;SDS011;59355;52.416;13.412;2023-05-29T14:22:05;5.40;;;4.70;;
2848;SDS011;59355;52.416;13.412;2023-05-29T14:24:31;4.50;;;3.17;;
2848;SDS011;59355;52.416;13.412;2023-05-29T14:26:56;4.63;;;3.67;;
2848;SDS011;59355;52.416;13.412;2023-05-29T14:29:22;8.30;;;3.80;;
2848;SDS011;59355;52.416;13.412;2023-05-29T14:31:47;4.43;;;3.50;;
2848;SDS011;59355;52.416;13.412;2023-05-29T14:34:12;7.23;;;4.40;;
2848;SDS011;59355;52.416;13.412;2023-05-29T14:36:38;6.17;;;3.97;;
2848;SDS011;59355;52.416;13.412;2023-05-29T14:39:04;5.40;;;3.80;;
2848;SDS011;59355;52.416;13.412;2023-05-29T14:41:30;5.40;;;3.70;;
2848;SDS011;59355;52.416;13.412;2023-05-29T14:43:55;4.57;;;3.57;;
2848;SDS011;59355;52.416;13.412;2023-05-29T14:46:23;6.30;;;3.70;;
2848;SDS011;59355;52.416;13.412;2023-05-29T14:48:49;6.97;;;4.03;;
2848;SDS011;59355;52.416;13.412;2023-05-29T14:51:15;5.97;;;3.30;;
2848;SDS011;59355;52.416;13.412;2023-05-29T14:53:41;3.83;;;3.43;;